Latest Coastal Weather Observations for Warruwi

IDD60701

Issued at 5:51 pm CST Thursday 29 September 2016 (issued every 10 minutes, with the page automatically refreshed every 10 minutes)

About coastal observations | Map of coastal stations | Coastal observations for NT | Marine services | Other Formats
Station Details ID: 014401 Name: WARRUWI AIRPORT Lat: -11.65 Lon: 133.38 Height: 19.2 m
Data from the previous 72 hours. | See also: Recent months at Warruwi
Date/Time
CST
Temp
°C
Wind Pressure Rain since
9am
mm
Weather Cloud Vis
km
Sea
Height
m
Swell
Dir  Spd
kts
Gust
kts
hPa Trend Height
m
Period
s
Dir
29/05:30pm 29.3 N 6 11 1007.4 - 0.0 - - - - - - -
29/05:00pm 30.0 N 6 10 1007.1 - 0.0 - - - - - - -
29/04:30pm 30.6 N 6 10 1007.0 - 0.0 - - - - - - -
29/04:00pm 31.2 NNE 6 10 1007.0 - 0.0 - - - - - - -
29/03:30pm 31.6 N 6 10 1007.0 - 0.0 - - - - - - -
29/03:00pm 31.3 N 6 10 1007.2 - 0.0 - - - - - - -
29/02:30pm 31.3 N 7 12 1007.7 - 0.0 - - - - - - -
29/02:00pm 31.5 NNE 4 8 1008.3 - 0.0 - - - - - - -
29/01:30pm 30.9 ENE 5 8 1008.9 - 0.0 - - - - - - -
29/01:00pm 30.4 WSW 7 10 1009.1 - 0.0 - - - - - - -
29/12:30pm 30.5 WSW 6 9 1009.5 - 0.0 - - - - - - -
29/12:00pm 30.4 E 5 8 1009.5 - 0.0 - - - - - - -
29/11:30am 31.1 E 5 9 1010.0 - 0.0 - - - - - - -
29/11:00am 30.3 E 5 8 1010.5 - 0.0 - - - - - - -
29/10:30am 29.8 E 5 9 1010.5 - 0.0 - - - - - - -
29/10:00am 29.2 E 4 6 1010.7 - 0.0 - - - - - - -
29/09:30am 29.2 E 3 5 1010.6 - 0.0 - - - - - - -
29/09:00am 28.5 E 3 4 1010.6 - 0.0 - - - - - - -
29/08:30am 28.4 ENE 1 4 1010.4 - 0.0 - - - - - - -
29/08:00am 27.5 NNE 1 2 1010.0 - 0.0 - - - - - - -
29/07:30am 26.3 CALM 0 0 1009.9 - 0.0 - - - - - - -
29/07:00am 25.5 CALM 0 0 1009.5 - 0.0 - - - - - - -
29/06:30am 25.2 CALM 0 0 1009.2 - 0.0 - - - - - - -
29/06:00am 25.1 CALM 0 1 1008.9 - 0.0 - - - - - - -
29/05:30am 25.2 CALM 0 0 1008.8 - 0.0 - - - - - - -
29/05:00am 25.5 CALM 0 0 1008.8 - 0.0 - - - - - - -
29/04:30am 25.4 CALM 0 0 1008.5 - 0.0 - - - - - - -
29/04:00am 25.6 CALM 0 0 1008.6 - 0.0 - - - - - - -
29/03:30am 25.4 CALM 0 0 1008.4 - 0.0 - - - - - - -
29/03:00am 25.4 NNE 1 2 1008.6 - 0.0 - - - - - - -
29/02:30am 25.6 CALM 0 0 1008.9 - 0.0 - - - - - - -
29/02:00am 25.7 CALM 0 0 1009.3 - 0.0 - - - - - - -
29/01:30am 26.1 CALM 0 0 1009.7 - 0.0 - - - - - - -
29/01:00am 26.0 CALM 0 0 1009.8 - 0.0 - - - - - - -
29/12:30am 26.1 CALM 0 0 1010.1 - 0.0 - - - - - - -
29/12:00am 26.1 CALM 0 0 1010.4 - 0.0 - - - - - - -
 
Date/Time
CST
Temp
°C
Wind Pressure Rain since
9am
mm
Weather Cloud Vis
km
Sea
Height
m
Swell
Dir  Spd
kts
Gust
kts
hPa Trend Height
m
Period
s
Dir
28/11:30pm 26.3 CALM 0 0 1010.4 - 0.0 - - - - - - -
28/11:00pm 26.8 CALM 0 0 1010.4 - 0.0 - - - - - - -
28/10:30pm 26.8 CALM 0 0 1010.3 - 0.0 - - - - - - -
28/10:00pm 26.8 NNE 2 3 1010.1 - 0.0 - - - - - - -
28/09:30pm 27.3 CALM 0 0 1010.1 - 0.0 - - - - - - -
28/09:00pm 27.5 NE 2 3 1009.8 - 0.0 - - - - - - -
28/08:30pm 27.7 NNE 3 5 1009.6 - 0.0 - - - - - - -
28/08:00pm 27.9 NNE 3 5 1009.4 - 0.0 - - - - - - -
28/07:30pm 28.2 NNE 2 3 1009.3 - 0.0 - - - - - - -
28/07:00pm 28.6 NNE 2 5 1009.2 - 0.0 - - - - - - -
28/06:30pm 29.2 NNE 3 5 1009.0 - 0.0 - - - - - - -
28/06:00pm 30.1 NNE 3 5 1008.7 - 0.0 - - - - - - -
28/05:30pm 30.8 N 3 6 1008.5 - 0.0 - - - - - - -
28/05:00pm 31.3 N 4 7 1008.5 - 0.0 - - - - - - -
28/04:30pm 31.5 N 4 7 1008.2 - 0.0 - - - - - - -
28/04:00pm 31.5 NW 3 7 1008.3 - 0.0 - - - - - - -
28/03:30pm 31.4 SE 2 5 1008.5 - 0.0 - - - - - - -
28/03:00pm 31.0 SW 3 6 1008.8 - 0.0 - - - - - - -
28/02:30pm 30.1 SW 5 7 1009.3 - 0.0 - - - - - - -
28/02:00pm 30.1 SW 6 8 1009.7 - 0.0 - - - - - - -
28/01:30pm 30.3 SW 4 6 1010.0 - 0.0 - - - - - - -
28/01:00pm 30.2 WSW 3 5 1010.5 - 0.0 - - - - - - -
28/12:30pm 29.9 SSE 3 7 1010.9 - 0.0 - - - - - - -
28/12:00pm 30.8 SE 4 12 1011.1 - 0.0 - - - - - - -
28/11:30am 30.0 NE 3 6 1011.7 - 0.0 - - - - - - -
28/11:00am 30.2 NE 3 6 1011.8 - 0.0 - - - - - - -
28/10:30am 30.6 W 5 10 1012.0 - 0.0 - - - - - - -
28/10:00am 29.9 WNW 3 6 1012.2 - 0.0 - - - - - - -
28/09:30am 30.1 N 3 7 1012.2 - 0.0 - - - - - - -
28/09:00am 29.8 N 4 5 1012.1 - 0.0 - - - - - - -
28/08:30am 28.5 N 4 6 1011.9 - 0.0 - - - - - - -
28/08:00am 28.6 NNE 2 3 1011.8 - 0.0 - - - - - - -
28/07:30am 27.6 CALM 0 2 1011.6 - 0.0 - - - - - - -
28/07:00am 26.3 NNE 1 2 1011.0 - 0.0 - - - - - - -
28/06:30am 25.5 NNE 1 2 1010.6 - 0.0 - - - - - - -
28/06:00am 25.5 CALM 0 2 1010.1 - 0.0 - - - - - - -
28/05:30am 25.5 CALM 0 0 1010.0 - 0.0 - - - - - - -
28/05:00am 25.7 CALM 0 0 1009.8 - 0.0 - - - - - - -
28/04:30am 26.0 NNE 2 4 1009.5 - 0.0 - - - - - - -
28/04:00am 25.5 NNE 1 1 1009.3 - 0.0 - - - - - - -
28/03:30am 25.8 ENE 1 2 1009.3 - 0.0 - - - - - - -
28/03:00am 25.7 CALM 0 0 1009.4 - 0.0 - - - - - - -
28/02:30am 25.7 CALM 0 0 1009.4 - 0.0 - - - - - - -
28/02:00am 25.8 CALM 0 0 1009.5 - 0.0 - - - - - - -
28/01:30am 25.9 CALM 0 0 1009.8 - 0.0 - - - - - - -
28/01:00am 26.1 CALM 0 0 1010.1 - 0.0 - - - - - - -
28/12:30am 26.3 CALM 0 0 1010.4 - 0.0 - - - - - - -
28/12:00am 26.4 CALM 0 0 1010.4 - 0.0 - - - - - - -
 
Date/Time
CST
Temp
°C
Wind Pressure Rain since
9am
mm
Weather Cloud Vis
km
Sea
Height
m
Swell
Dir  Spd
kts
Gust
kts
hPa Trend Height
m
Period
s
Dir
27/11:30pm 26.8 CALM 0 0 1010.7 - 0.0 - - - - - - -
27/11:00pm 26.8 CALM 0 0 1010.9 - 0.0 - - - - - - -
27/10:30pm 27.0 CALM 0 0 1011.0 - 0.0 - - - - - - -
27/10:00pm 27.3 CALM 0 0 1010.8 - 0.0 - - - - - - -
27/09:30pm 27.4 NE 1 2 1010.5 - 0.0 - - - - - - -
27/09:00pm 27.7 CALM 0 2 1010.1 - 0.0 - - - - - - -
27/08:30pm 27.7 NNE 3 4 1010.0 - 0.0 - - - - - - -
27/08:00pm 27.9 N 2 5 1009.7 - 0.0 - - - - - - -
27/07:30pm 28.2 NNE 2 3 1009.5 - 0.0 - - - - - - -
27/07:00pm 28.5 NNE 3 7 1009.3 - 0.0 - - - - - - -
27/06:30pm 28.8 NE 4 7 1009.1 - 0.0 - - - - - - -
27/06:00pm 29.4 NNE 5 8 1008.6 - 0.0 - - - - - - -
27/05:30pm 30.0 NE 5 8 1008.5 - 0.0 - - - - - - -
27/05:00pm 31.0 NNE 5 9 1008.5 - 0.0 - - - - - - -
27/04:30pm 31.3 NNE 7 12 1008.5 - 0.0 - - - - - - -
27/04:00pm 31.1 NNE 7 11 1008.7 - 0.0 - - - - - - -
27/03:30pm 32.2 NE 6 12 1008.9 - 0.0 - - - - - - -
27/03:00pm 32.3 NE 6 13 1009.0 - 0.0 - - - - - - -
27/02:30pm 32.7 NE 7 11 1009.3 - 0.0 - - - - - - -
27/02:00pm 33.1 ENE 7 9 1009.7 - 0.0 - - - - - - -
27/01:30pm 32.8 E 7 11 1010.1 - 0.0 - - - - - - -
27/01:00pm 32.7 E 6 11 1010.4 - 0.0 - - - - - - -
27/12:30pm 32.3 NE 3 6 1010.8 - 0.0 - - - - - - -
27/12:00pm 32.1 E 3 8 1011.3 - 0.0 - - - - - - -
27/11:30am 32.1 E 3 7 1011.7 - 0.0 - - - - - - -
27/11:00am 31.0 E 4 7 1012.1 - 0.0 - - - - - - -
27/10:30am 30.6 E 5 8 1012.3 - 0.0 - - - - - - -
27/10:00am 30.6 E 4 7 1012.5 - 0.0 - - - - - - -
27/09:30am 30.1 E 3 5 1012.5 - 0.0 - - - - - - -
27/09:00am 29.4 ESE 3 6 1012.4 - 0.0 - - - - - - -
27/08:30am 28.9 SE 3 5 1012.2 - 0.0 - - - - - - -
27/08:00am 28.5 CALM 0 1 1012.0 - 0.0 - - - - - - -
27/07:30am 27.5 CALM 0 0 1011.7 - 0.0 - - - - - - -
27/07:00am 26.4 CALM 0 0 1011.5 - 0.0 - - - - - - -
27/06:30am 26.3 CALM 0 0 1011.0 - 0.0 - - - - - - -
27/06:00am 26.4 CALM 0 0 1010.8 - 0.0 - - - - - - -
27/05:30am 26.4 CALM 0 0 1010.4 - 0.0 - - - - - - -
27/05:00am 26.3 NNE 1 2 1010.1 - 0.0 - - - - - - -
27/04:30am 26.1 NNE 1 3 1009.9 - 0.0 - - - - - - -
27/04:00am 26.3 NNE 2 3 1009.7 - 0.0 - - - - - - -
27/03:30am 26.4 NNE 2 3 1009.5 - 0.0 - - - - - - -
27/03:00am 26.4 NNE 2 3 1009.4 - 0.0 - - - - - - -
27/02:30am 26.7 NNE 2 3 1009.5 - 0.0 - - - - - - -
27/02:00am 27.2 NE 2 4 1009.7 - 0.0 - - - - - - -
27/01:30am 27.4 NE 3 5 1010.1 - 0.0 - - - - - - -
27/01:00am 27.5 NE 3 6 1010.5 - 0.0 - - - - - - -
27/12:30am 27.6 ENE 3 4 1010.7 - 0.0 - - - - - - -
27/12:00am 27.8 ENE 3 5 1010.9 - 0.0 - - - - - - -
 
Date/Time
CST
Temp
°C
Wind Pressure Rain since
9am
mm
Weather Cloud Vis
km
Sea
Height
m
Swell
Dir  Spd
kts
Gust
kts
hPa Trend Height
m
Period
s
Dir
26/11:30pm 27.9 E 3 7 1011.3 - 0.0 - - - - - - -
26/11:00pm 27.5 ENE 2 4 1011.4 - 0.0 - - - - - - -
26/10:30pm 27.0 NE 2 4 1011.2 - 0.0 - - - - - - -
26/10:00pm 26.8 ENE 1 3 1011.1 - 0.0 - - - - - - -
26/09:30pm 26.6 CALM 0 0 1010.9 - 0.0 - - - - - - -
26/09:00pm 26.8 CALM 0 0 1010.5 - 0.0 - - - - - - -
26/08:30pm 27.3 CALM 0 0 1010.2 - 0.0 - - - - - - -
26/08:00pm 27.6 NNE 1 2 1010.1 - 0.0 - - - - - - -
26/07:30pm 27.9 NNE 2 4 1009.7 - 0.0 - - - - - - -
26/07:00pm 28.2 NE 2 3 1009.4 - 0.0 - - - - - - -
26/06:30pm 28.6 NNE 3 5 1009.4 - 0.0 - - - - - - -
26/06:00pm 29.1 NE 3 5 1009.1 - 0.0 - - - - - - -

Other Formats:

Comma delimited format used in spreadsheet applications
http://www.bom.gov.au/fwo/IDD60701/IDD60701.94139.axf

JavaScript Object Notation format (JSON) in row-major order
http://www.bom.gov.au/fwo/IDD60701/IDD60701.94139.json